Time;durP1;ratioP1;P1;durP2;ratioP2;P2;SDS_P1;SDS_P2;PMS_P1;PMS_P2;Temp;Humidity;BMP_temperature;BMP_pressure;BME280_temperature;BME280_humidity;BME280_pressure;Samples;Min_cycle;Max_cycle;Signal;HPM_P1;HPM_P2
2023/01/07 00:01:12;;;;;;;21.80;11.37;;;;;;;5.36;87.72;95364.09;5081124;28;20205;-76
2023/01/07 00:03:39;;;;;;;22.63;11.97;;;;;;;5.31;87.89;95363.78;5081088;28;20935;-75
2023/01/07 00:06:09;;;;;;;21.43;11.03;;;;;;;5.23;87.68;95366.38;5081062;28;20218;-76
2023/01/07 00:08:38;;;;;;;22.57;10.80;;;;;;;5.24;88.19;95361.06;5081283;28;20219;-76
2023/01/07 00:11:07;;;;;;;25.07;11.27;;;;;;;5.16;88.43;95363.69;5079739;28;20197;-76
2023/01/07 00:13:35;;;;;;;23.40;10.80;;;;;;;5.18;88.71;95356.59;5080079;28;20199;-76
2023/01/07 00:16:05;;;;;;;21.97;11.30;;;;;;;5.18;88.11;95371.25;5077775;28;20195;-76
2023/01/07 00:18:32;;;;;;;19.77;11.23;;;;;;;5.02;88.87;95348.94;5081148;28;20265;-75
2023/01/07 00:20:59;;;;;;;21.00;11.33;;;;;;;4.98;89.79;95369.06;5080832;28;20198;-75
2023/01/07 00:23:26;;;;;;;21.93;11.57;;;;;;;4.94;89.76;95365.19;5080475;28;20190;-75
2023/01/07 00:26:00;;;;;;;19.87;10.63;;;;;;;4.95;89.34;95361.66;5080949;28;20209;-77
2023/01/07 00:28:28;;;;;;;21.97;10.87;;;;;;;4.82;90.36;95361.38;5083673;28;20203;-78
2023/01/07 00:30:59;;;;;;;23.83;11.10;;;;;;;4.83;91.09;95362.19;5082175;28;20195;-80
2023/01/07 00:33:27;;;;;;;21.40;11.70;;;;;;;4.86;90.45;95359.28;5081956;28;20218;-76
2023/01/07 00:35:59;;;;;;;21.40;11.10;;;;;;;4.81;91.52;95364.94;5077780;28;20205;-77
2023/01/07 00:38:26;;;;;;;19.40;11.57;;;;;;;4.80;91.30;95372.81;5078117;28;20742;-78
2023/01/07 00:40:53;;;;;;;24.37;11.73;;;;;;;4.71;91.79;95363.50;5082544;28;20219;-76
2023/01/07 00:43:20;;;;;;;20.97;10.93;;;;;;;4.64;91.95;95359.97;5077118;28;20201;-76
2023/01/07 00:45:48;;;;;;;21.30;10.97;;;;;;;4.63;92.33;95361.75;5081740;28;20217;-75
2023/01/07 00:48:17;;;;;;;21.40;11.23;;;;;;;4.67;92.11;95369.94;5079973;28;20188;-76
2023/01/07 00:50:48;;;;;;;26.77;12.67;;;;;;;4.71;92.21;95379.75;5077902;28;20672;-76
2023/01/07 00:53:15;;;;;;;22.97;11.83;;;;;;;4.69;91.88;95371.38;5081260;28;20192;-76
2023/01/07 00:55:42;;;;;;;22.60;12.03;;;;;;;4.70;92.22;95377.34;5080240;28;20202;-75
2023/01/07 00:58:14;;;;;;;24.47;12.20;;;;;;;4.66;92.28;95376.06;5077094;28;20206;-76
2023/01/07 01:00:41;;;;;;;19.97;10.67;;;;;;;4.34;92.49;95333.97;5078874;28;20202;-76
2023/01/07 01:03:11;;;;;;;23.97;12.33;;;;;;;4.60;92.43;95377.50;5077621;28;20197;-76
2023/01/07 01:05:37;;;;;;;27.10;12.43;;;;;;;4.56;92.55;95378.78;5078259;28;20280;-75
2023/01/07 01:08:05;;;;;;;23.60;12.10;;;;;;;4.53;91.83;95385.06;5081850;28;20197;-75
2023/01/07 01:10:32;;;;;;;22.33;11.03;;;;;;;4.42;92.53;95384.59;5077158;28;20688;-75
2023/01/07 01:12:59;;;;;;;23.30;12.40;;;;;;;4.40;92.20;95386.53;5080021;28;20194;-76
2023/01/07 01:15:26;;;;;;;23.63;12.17;;;;;;;4.41;93.03;95391.53;5081172;28;20193;-77
2023/01/07 01:17:53;;;;;;;23.97;11.73;;;;;;;4.42;92.79;95385.41;5083019;28;20208;-75
2023/01/07 01:20:21;;;;;;;24.97;11.90;;;;;;;4.40;92.17;95386.53;5080656;28;20210;-77
2023/01/07 01:22:48;;;;;;;25.37;11.50;;;;;;;4.34;92.69;95382.84;5084963;28;20205;-77
2023/01/07 01:25:15;;;;;;;20.53;10.53;;;;;;;4.35;93.14;95387.03;5085747;28;20200;-76
2023/01/07 01:27:42;;;;;;;25.73;12.60;;;;;;;4.28;93.17;95386.06;5081432;28;20205;-76
2023/01/07 01:30:11;;;;;;;28.87;12.60;;;;;;;4.34;92.62;95385.41;5085359;28;20206;-76
2023/01/07 01:32:37;;;;;;;23.30;11.87;;;;;;;4.32;93.63;95389.94;5079417;28;20214;-76
2023/01/07 01:35:05;;;;;;;21.00;12.07;;;;;;;4.29;93.28;95382.53;5082210;28;20221;-77
2023/01/07 01:37:33;;;;;;;21.63;11.63;;;;;;;4.35;92.29;95383.66;5083494;28;20609;-76
2023/01/07 01:40:02;;;;;;;25.33;13.00;;;;;;;4.35;92.75;95384.47;5081147;28;20213;-76
2023/01/07 01:42:30;;;;;;;27.80;13.03;;;;;;;4.33;93.11;95377.88;5081788;28;20771;-76
2023/01/07 01:44:58;;;;;;;25.47;12.93;;;;;;;4.31;93.06;95382.34;5082087;28;20261;-76
2023/01/07 01:47:34;;;;;;;28.27;13.17;;;;;;;4.25;93.43;95376.09;5081640;28;20653;-76
2023/01/07 01:50:07;;;;;;;29.47;14.07;;;;;;;4.17;93.27;95375.28;5081733;28;20199;-77
2023/01/07 01:52:40;;;;;;;30.97;14.97;;;;;;;4.06;93.22;95371.28;5084629;28;20589;-79
2023/01/07 01:55:10;;;;;;;25.33;13.70;;;;;;;4.03;93.35;95378.50;5084456;28;20648;-81
2023/01/07 01:57:38;;;;;;;25.70;13.77;;;;;;;4.01;94.20;95378.69;5085011;28;20193;-78
2023/01/07 02:00:07;;;;;;;28.40;14.23;;;;;;;3.92;93.94;95356.50;5081181;28;20199;-78
2023/01/07 02:02:40;;;;;;;28.50;14.73;;;;;;;3.94;94.05;95363.06;5088336;28;20186;-78
2023/01/07 02:05:08;;;;;;;30.83;15.67;;;;;;;3.94;94.02;95354.56;5087381;28;20193;-76
2023/01/07 02:07:36;;;;;;;30.83;15.73;;;;;;;3.98;94.05;95359.19;5080463;28;20203;-76
2023/01/07 02:10:13;;;;;;;26.40;14.30;;;;;;;3.96;93.90;95362.91;5081832;28;20212;-76
2023/01/07 02:12:55;;;;;;;32.40;15.40;;;;;;;3.87;93.44;95374.13;5080319;28;20186;-76
2023/01/07 02:15:29;;;;;;;25.63;14.43;;;;;;;3.79;94.84;95369.81;5081909;28;20208;-77
2023/01/07 02:18:08;;;;;;;28.83;15.10;;;;;;;3.73;95.32;95357.59;5084250;28;20193;-77
2023/01/07 02:20:46;;;;;;;33.73;15.97;;;;;;;3.78;95.16;95359.69;5080959;28;20232;-77
2023/01/07 02:23:51;;;;;;;29.57;15.90;;;;;;;3.76;95.52;95361.59;5083220;28;20214;-76
2023/01/07 02:26:47;;;;;;;36.40;18.23;;;;;;;3.58;95.60;95360.94;5082923;28;20200;-78
2023/01/07 02:29:36;;;;;;;40.77;19.33;;;;;;;3.58;95.89;95366.09;5080890;28;20592;-78
2023/01/07 02:32:22;;;;;;;41.73;20.07;;;;;;;3.60;96.90;95364.16;5084512;28;20186;-77
2023/01/07 02:35:02;;;;;;;38.67;19.50;;;;;;;3.50;96.37;95359.13;5081425;28;20228;-77
2023/01/07 02:37:35;;;;;;;38.53;19.50;;;;;;;3.51;97.04;95372.78;5080645;28;20191;-76
2023/01/07 02:40:13;;;;;;;42.20;21.23;;;;;;;3.50;96.58;95361.72;5082538;28;20197;-77
2023/01/07 02:42:49;;;;;;;42.83;21.30;;;;;;;3.59;96.61;95360.78;5085491;28;20187;-77
2023/01/07 02:45:23;;;;;;;46.77;22.87;;;;;;;3.54;96.16;95362.19;5080580;28;20194;-77
2023/01/07 02:47:55;;;;;;;49.53;23.67;;;;;;;3.55;96.31;95363.81;5080837;28;20204;-78
2023/01/07 02:50:22;;;;;;;59.30;26.57;;;;;;;3.50;96.78;95371.19;5083405;28;20204;-78
2023/01/07 02:52:49;;;;;;;62.27;28.77;;;;;;;3.53;96.54;95360.59;5080769;28;20655;-78
2023/01/07 02:55:19;;;;;;;70.17;33.90;;;;;;;3.44;97.06;95358.00;5081136;28;20197;-77
2023/01/07 02:58:09;;;;;;;88.33;38.57;;;;;;;3.39;97.79;95362.00;5083077;28;20198;-78
2023/01/07 03:00:50;;;;;;;85.90;38.77;;;;;;;3.48;97.61;95371.34;5080628;28;20615;-77
2023/01/07 03:03:33;;;;;;;89.97;39.50;;;;;;;3.43;96.92;95376.94;5081130;28;20648;-77
2023/01/07 03:06:09;;;;;;;90.63;39.17;;;;;;;3.41;97.47;95367.78;5082109;28;20197;-76
2023/01/07 03:08:49;;;;;;;83.73;39.53;;;;;;;3.39;97.55;95359.44;5082158;28;20189;-77
2023/01/07 03:11:18;;;;;;;80.43;37.17;;;;;;;3.33;97.96;95353.16;5079577;28;20208;-77
2023/01/07 03:13:49;;;;;;;63.63;31.63;;;;;;;3.40;98.11;95376.47;5082735;28;20213;-77
2023/01/07 03:16:21;;;;;;;59.37;28.50;;;;;;;3.41;97.84;95380.63;5083277;28;20190;-77
2023/01/07 03:18:55;;;;;;;65.70;30.07;;;;;;;3.44;97.23;95378.56;5079459;28;20251;-77
2023/01/07 03:21:25;;;;;;;55.53;27.80;;;;;;;3.42;97.40;95377.91;5081626;28;20189;-76
2023/01/07 03:23:56;;;;;;;49.27;24.97;;;;;;;3.38;97.67;95375.81;5083562;28;20208;-76
2023/01/07 03:26:26;;;;;;;44.87;22.80;;;;;;;3.37;97.64;95376.78;5080987;28;20223;-76
2023/01/07 03:28:55;;;;;;;33.33;17.53;;;;;;;3.41;97.53;95380.63;5081560;28;20204;-76
2023/01/07 03:31:22;;;;;;;35.43;17.17;;;;;;;3.40;97.99;95377.28;5081713;28;20228;-76
2023/01/07 03:33:54;;;;;;;33.83;16.63;;;;;;;3.43;97.70;95365.88;5078321;28;20224;-77
2023/01/07 03:36:26;;;;;;;41.27;19.47;;;;;;;3.42;97.86;95377.09;5080500;28;20279;-77
2023/01/07 03:38:54;;;;;;;36.83;18.97;;;;;;;3.36;97.39;95373.41;5079791;28;20209;-78
2023/01/07 03:44:05;;;;;;;40.87;22.40;;;;;;;3.47;97.24;95381.75;5080976;28;20200;-77
2023/01/07 03:46:34;;;;;;;44.37;21.97;;;;;;;3.46;97.32;95380.97;5079658;28;20201;-77
2023/01/07 03:49:05;;;;;;;48.27;24.67;;;;;;;3.51;96.38;95376.19;5083817;28;20679;-77
2023/01/07 03:51:32;;;;;;;52.83;25.90;;;;;;;3.42;96.34;95383.06;5080249;28;20228;-78
2023/01/07 03:53:58;;;;;;;43.50;23.40;;;;;;;3.36;97.45;95383.69;5082546;28;20204;-78
2023/01/07 03:56:25;;;;;;;49.60;24.97;;;;;;;3.28;97.94;95378.50;5085096;28;20557;-79
2023/01/07 03:58:52;;;;;;;45.17;23.07;;;;;;;3.37;97.59;95381.91;5081640;28;20784;-76
2023/01/07 04:01:19;;;;;;;47.20;25.60;;;;;;;3.39;97.31;95391.06;5077263;28;20242;-77
2023/01/07 04:03:45;;;;;;;53.23;27.40;;;;;;;3.43;97.06;95376.16;5082131;28;20200;-76
2023/01/07 04:06:14;;;;;;;46.43;24.40;;;;;;;3.42;97.83;95383.06;5078442;28;20200;-76
2023/01/07 04:08:41;;;;;;;46.97;23.43;;;;;;;3.40;98.64;95387.56;5076971;28;20550;-77
2023/01/07 04:11:07;;;;;;;68.90;29.83;;;;;;;3.44;97.84;95393.16;5081734;28;20221;-77
2023/01/07 04:13:34;;;;;;;66.23;28.10;;;;;;;3.50;97.85;95407.16;5081290;28;20192;-77
2023/01/07 04:16:01;;;;;;;68.80;30.53;;;;;;;3.50;98.60;95397.69;5080605;28;20613;-77
2023/01/07 04:18:28;;;;;;;62.30;28.63;;;;;;;3.49;98.84;95393.53;5082350;28;20200;-77
2023/01/07 04:20:54;;;;;;;46.93;22.97;;;;;;;3.44;99.19;95404.25;5080085;28;20197;-77
2023/01/07 04:23:23;;;;;;;46.97;22.43;;;;;;;3.54;98.74;95406.69;5078435;28;20201;-76
2023/01/07 04:25:50;;;;;;;50.50;24.07;;;;;;;3.63;99.15;95397.25;5082476;28;20193;-77
2023/01/07 04:28:17;;;;;;;36.07;20.20;;;;;;;3.66;98.22;95399.50;5080241;28;20200;-78
2023/01/07 04:30:43;;;;;;;41.70;20.90;;;;;;;3.75;97.45;95406.28;5080695;28;20304;-77
2023/01/07 04:33:10;;;;;;;33.17;18.30;;;;;;;3.75;98.47;95396.00;5081908;28;20223;-77
2023/01/07 04:35:38;;;;;;;30.83;16.90;;;;;;;3.75;98.66;95404.47;5078092;28;20195;-76
2023/01/07 04:38:05;;;;;;;28.23;16.43;;;;;;;3.74;98.32;95402.09;5079114;28;20193;-76
2023/01/07 04:40:34;;;;;;;28.90;16.10;;;;;;;3.69;99.33;95410.28;5080679;28;20546;-75
2023/01/07 04:43:00;;;;;;;32.10;17.60;;;;;;;3.75;99.45;95411.41;5080235;28;20603;-75
2023/01/07 04:45:27;;;;;;;38.43;19.80;;;;;;;3.85;98.91;95414.63;5080486;28;20204;-75
2023/01/07 04:47:55;;;;;;;37.43;19.60;;;;;;;3.82;97.68;95395.19;5080557;28;20214;-76
2023/01/07 04:50:22;;;;;;;39.03;20.10;;;;;;;3.93;98.74;95409.50;5080021;28;20308;-75
2023/01/07 04:52:49;;;;;;;39.47;19.97;;;;;;;3.95;98.54;95410.16;5084456;28;20200;-76
2023/01/07 04:55:17;;;;;;;36.20;19.53;;;;;;;4.03;98.88;95412.75;5084111;28;20211;-76
2023/01/07 04:57:45;;;;;;;44.30;21.23;;;;;;;4.10;98.25;95413.69;5082264;28;20666;-76
2023/01/07 05:00:12;;;;;;;37.03;19.00;;;;;;;4.13;97.61;95410.03;5084351;28;20196;-77
2023/01/07 05:02:39;;;;;;;46.83;21.43;;;;;;;4.11;97.71;95410.16;5085665;28;20184;-77
2023/01/07 05:05:07;;;;;;;45.80;23.70;;;;;;;4.05;97.55;95405.66;5084758;28;20187;-75
2023/01/07 05:07:33;;;;;;;67.47;33.00;;;;;;;4.10;97.98;95412.91;5084054;28;20262;-76
2023/01/07 05:10:00;;;;;;;104.23;45.93;;;;;;;4.07;98.03;95410.66;5081914;28;20218;-76
2023/01/07 05:12:27;;;;;;;98.23;43.50;;;;;;;4.10;98.23;95410.34;5084359;28;20546;-76
2023/01/07 05:14:55;;;;;;;76.07;36.97;;;;;;;4.13;97.90;95405.66;5083400;28;20231;-77
2023/01/07 05:17:22;;;;;;;80.13;36.70;;;;;;;4.22;97.70;95407.28;5084726;28;20688;-77
2023/01/07 05:19:49;;;;;;;75.80;38.03;;;;;;;4.23;97.01;95411.47;5085174;28;20643;-76
2023/01/07 05:22:15;;;;;;;79.70;38.73;;;;;;;4.25;96.86;95414.69;5083122;28;21122;-76
2023/01/07 05:24:42;;;;;;;76.37;36.80;;;;;;;4.18;96.38;95418.88;5080739;28;20198;-76
2023/01/07 05:27:09;;;;;;;64.83;31.03;;;;;;;4.04;97.62;95418.69;5080358;28;20198;-76
2023/01/07 05:29:36;;;;;;;46.00;22.60;;;;;;;4.05;97.78;95428.00;5084398;28;20702;-76
2023/01/07 05:32:04;;;;;;;30.93;17.43;;;;;;;4.06;97.14;95427.84;5083072;28;20212;-76
2023/01/07 05:34:31;;;;;;;32.40;16.37;;;;;;;4.00;97.33;95424.16;5083015;28;20225;-75
2023/01/07 05:36:58;;;;;;;31.93;15.80;;;;;;;3.95;97.41;95434.09;5082955;28;21001;-76
2023/01/07 05:39:25;;;;;;;33.40;15.60;;;;;;;3.97;97.36;95433.94;5082496;28;20224;-75
2023/01/07 05:41:52;;;;;;;27.00;13.80;;;;;;;3.92;97.41;95428.47;5085247;28;20197;-76
2023/01/07 05:44:19;;;;;;;25.77;14.10;;;;;;;3.97;96.92;95427.03;5081081;28;20209;-75
2023/01/07 05:46:46;;;;;;;22.27;12.23;;;;;;;3.94;96.92;95427.34;5085270;28;20212;-76
2023/01/07 05:49:14;;;;;;;19.87;11.70;;;;;;;3.90;97.15;95431.19;5084465;28;20186;-76
2023/01/07 05:51:41;;;;;;;21.77;12.10;;;;;;;3.81;96.97;95423.63;5082181;28;20232;-76
2023/01/07 05:54:08;;;;;;;25.33;12.00;;;;;;;3.80;97.67;95422.03;5082980;28;20212;-75
2023/01/07 05:56:35;;;;;;;22.87;13.13;;;;;;;3.76;97.32;95436.13;5083360;28;20653;-76
2023/01/07 05:59:02;;;;;;;24.23;13.57;;;;;;;3.77;97.34;95437.75;5081500;28;20201;-75
2023/01/07 06:01:28;;;;;;;24.90;11.97;;;;;;;3.73;97.32;95432.13;5086618;28;20184;-76
2023/01/07 06:03:55;;;;;;;20.20;11.87;;;;;;;3.70;97.55;95439.31;5081303;28;20198;-76
2023/01/07 06:06:24;;;;;;;27.90;13.40;;;;;;;3.68;97.50;95441.25;5081937;28;20198;-78
2023/01/07 06:08:50;;;;;;;23.10;13.57;;;;;;;3.66;97.71;95438.03;5084208;28;20200;-76
2023/01/07 06:11:17;;;;;;;45.00;23.93;;;;;;;3.71;97.85;95446.91;5082094;28;20210;-77
2023/01/07 06:13:44;;;;;;;53.00;25.97;;;;;;;3.61;97.36;95427.44;5083068;28;20194;-75
2023/01/07 06:16:13;;;;;;;57.30;28.10;;;;;;;3.74;97.37;95438.06;5085500;28;20197;-76
2023/01/07 06:18:40;;;;;;;62.70;30.77;;;;;;;3.73;97.81;95444.16;5080641;28;20189;-76
2023/01/07 06:21:07;;;;;;;63.03;33.87;;;;;;;3.69;97.74;95440.31;5080033;28;20185;-76
2023/01/07 06:23:35;;;;;;;89.27;39.27;;;;;;;3.71;97.63;95446.09;5084075;28;20272;-76
2023/01/07 06:26:03;;;;;;;73.13;34.83;;;;;;;3.71;97.46;95444.31;5082369;28;20197;-76
2023/01/07 06:28:30;;;;;;;60.43;31.23;;;;;;;3.71;98.07;95443.50;5083069;28;20193;-75
2023/01/07 06:30:56;;;;;;;79.07;41.20;;;;;;;3.73;97.43;95446.72;5083854;28;20218;-77
2023/01/07 06:33:23;;;;;;;72.47;35.00;;;;;;;3.71;98.50;95452.03;5081864;28;20746;-77
2023/01/07 06:35:50;;;;;;;64.63;34.10;;;;;;;3.72;98.42;95450.28;5080255;28;20200;-78
2023/01/07 06:38:17;;;;;;;60.53;33.37;;;;;;;3.79;98.52;95446.91;5084066;28;20200;-78
2023/01/07 06:40:45;;;;;;;56.60;31.70;;;;;;;3.85;98.15;95451.44;5082069;28;20302;-77
2023/01/07 06:43:12;;;;;;;66.80;30.77;;;;;;;3.81;97.86;95432.13;5081701;28;20263;-78
2023/01/07 06:45:39;;;;;;;56.37;28.30;;;;;;;3.92;97.01;95456.75;5082917;28;20185;-77
2023/01/07 06:48:06;;;;;;;53.93;26.47;;;;;;;3.99;97.02;95444.88;5080747;28;20184;-77
2023/01/07 06:50:32;;;;;;;52.97;25.77;;;;;;;3.99;97.01;95453.38;5083195;28;20189;-77
2023/01/07 06:52:59;;;;;;;56.13;27.93;;;;;;;4.01;97.64;95443.75;5085168;28;20194;-77
2023/01/07 06:55:26;;;;;;;61.60;30.23;;;;;;;4.14;97.20;95447.63;5083563;28;20200;-79
2023/01/07 06:57:54;;;;;;;60.93;29.63;;;;;;;4.19;97.08;95453.09;5083749;28;20585;-72
2023/01/07 07:00:21;;;;;;;59.70;29.40;;;;;;;4.13;96.90;95436.53;5081805;28;20201;-73
2023/01/07 07:02:48;;;;;;;46.70;22.73;;;;;;;4.27;96.87;95460.84;5079068;28;20202;-72
2023/01/07 07:05:15;;;;;;;30.00;16.63;;;;;;;4.29;97.64;95454.56;5082463;28;20210;-73
2023/01/07 07:07:42;;;;;;;22.03;13.43;;;;;;;4.38;97.39;95457.94;5086928;28;20894;-72
2023/01/07 07:10:09;;;;;;;18.33;10.77;;;;;;;4.44;97.35;95457.31;5085575;28;20629;-73
2023/01/07 07:12:37;;;;;;;18.23;10.70;;;;;;;4.47;96.66;95444.91;5084429;28;20225;-73
2023/01/07 07:15:07;;;;;;;19.57;10.93;;;;;;;4.69;96.17;95455.53;5086607;28;20193;-72
2023/01/07 07:17:34;;;;;;;13.73;9.10;;;;;;;4.71;95.31;95449.25;5081575;28;20200;-69
2023/01/07 07:20:01;;;;;;;25.73;9.53;;;;;;;4.74;95.56;95451.50;5081419;28;20203;-71
2023/01/07 07:22:28;;;;;;;16.53;10.03;;;;;;;4.72;95.48;95452.63;5081821;28;20189;-75
2023/01/07 07:24:54;;;;;;;20.77;9.67;;;;;;;4.79;94.51;95459.53;5082311;28;20205;-71
2023/01/07 07:27:21;;;;;;;18.60;9.57;;;;;;;4.79;94.81;95458.75;5081555;28;20194;-73
2023/01/07 07:29:48;;;;;;;21.67;9.97;;;;;;;4.76;94.29;95462.44;5079642;28;20205;-74
2023/01/07 07:32:16;;;;;;;18.57;9.50;;;;;;;4.75;94.53;95455.69;5083653;28;20217;-73
2023/01/07 07:34:45;;;;;;;13.93;9.10;;;;;;;4.73;94.97;95449.91;5078407;28;20244;-73
2023/01/07 07:37:12;;;;;;;18.33;10.03;;;;;;;4.85;94.70;95455.53;5081311;28;20281;-72
2023/01/07 07:39:42;;;;;;;19.63;10.53;;;;;;;4.89;93.25;95465.34;5082814;28;20284;-73
2023/01/07 07:42:09;;;;;;;21.90;11.00;;;;;;;4.88;93.40;95461.13;5079427;28;20189;-73
2023/01/07 07:44:35;;;;;;;22.47;12.30;;;;;;;4.84;93.75;95449.56;5079168;28;20186;-73
2023/01/07 07:47:02;;;;;;;22.93;11.83;;;;;;;4.85;94.32;95455.53;5083957;28;20199;-73
2023/01/07 07:49:31;;;;;;;28.37;12.60;;;;;;;4.89;93.34;95455.03;5081473;28;20202;-73
2023/01/07 07:51:57;;;;;;;22.90;13.23;;;;;;;4.85;94.15;95458.09;5080622;28;20214;-74
2023/01/07 07:54:24;;;;;;;27.70;15.40;;;;;;;4.90;93.47;95454.06;5080806;28;20718;-73
2023/01/07 07:56:51;;;;;;;25.37;14.47;;;;;;;4.94;93.22;95457.09;5080651;28;20704;-73
2023/01/07 07:59:18;;;;;;;25.57;14.63;;;;;;;4.91;93.78;95463.38;5079323;28;20201;-79
2023/01/07 08:01:45;;;;;;;27.23;15.30;;;;;;;4.87;93.89;95456.16;5086168;28;20198;-83
2023/01/07 08:04:12;;;;;;;23.77;13.43;;;;;;;4.95;94.05;95462.09;5085020;28;20194;-79
2023/01/07 08:06:40;;;;;;;27.40;14.87;;;;;;;4.79;93.89;95449.22;5085230;28;20190;-81
2023/01/07 08:09:07;;;;;;;21.57;12.80;;;;;;;4.83;94.56;95460.81;5083293;28;20210;-81
2023/01/07 08:11:34;;;;;;;23.53;13.30;;;;;;;4.89;94.16;95455.03;5079035;28;20223;-80
2023/01/07 08:14:01;;;;;;;21.43;12.63;;;;;;;4.95;94.19;95464.69;5081559;28;20186;-80
2023/01/07 08:16:28;;;;;;;28.43;13.93;;;;;;;5.01;93.69;95466.59;5083346;28;20252;-79
2023/01/07 08:18:54;;;;;;;20.00;11.23;;;;;;;5.02;93.51;95462.25;5079768;28;20572;-80
2023/01/07 08:21:21;;;;;;;17.87;10.40;;;;;;;5.07;94.22;95457.41;5084182;28;20234;-86
2023/01/07 08:23:49;;;;;;;19.17;11.03;;;;;;;5.09;93.76;95455.47;5083725;28;20230;-78
2023/01/07 08:26:16;;;;;;;21.87;10.80;;;;;;;5.20;92.88;95462.03;5083658;28;20199;-76
2023/01/07 08:28:43;;;;;;;22.53;10.73;;;;;;;5.18;92.65;95466.56;5084073;28;20582;-75
2023/01/07 08:31:10;;;;;;;21.93;10.87;;;;;;;5.20;92.99;95456.88;5086578;28;20192;-81
2023/01/07 08:33:38;;;;;;;21.10;11.50;;;;;;;5.26;92.85;95458.81;5089644;28;20234;-80
2023/01/07 08:36:07;;;;;;;22.70;12.93;;;;;;;5.26;93.10;95458.81;5085657;28;20279;-80
2023/01/07 08:38:34;;;;;;;26.37;14.10;;;;;;;5.32;93.17;95460.72;5089913;28;20700;-79
2023/01/07 08:41:03;;;;;;;26.60;14.87;;;;;;;5.35;93.04;95453.47;5088052;28;20203;-80
2023/01/07 08:43:30;;;;;;;31.47;14.73;;;;;;;5.39;92.54;95459.09;5085561;28;20196;-80
2023/01/07 08:45:57;;;;;;;27.17;16.50;;;;;;;5.43;92.82;95457.78;5088978;28;20199;-80
2023/01/07 08:48:24;;;;;;;28.43;16.27;;;;;;;5.48;92.22;95450.38;5091398;28;20200;-81
2023/01/07 08:50:52;;;;;;;37.47;18.97;;;;;;;5.56;91.15;95458.09;5090109;28;20215;-80
2023/01/07 08:53:19;;;;;;;33.43;17.90;;;;;;;5.58;91.35;95446.63;5087887;28;20226;-80
2023/01/07 08:55:46;;;;;;;30.30;17.43;;;;;;;5.66;91.28;95453.50;5089206;28;20211;-81
2023/01/07 08:58:15;;;;;;;35.33;17.20;;;;;;;5.78;90.31;95448.78;5088148;28;21662;-80
2023/01/07 09:00:42;;;;;;;26.20;15.37;;;;;;;5.84;90.42;95448.94;5087563;28;20718;-80
2023/01/07 09:03:09;;;;;;;29.60;16.57;;;;;;;5.83;90.67;95451.69;5088572;28;20192;-79
2023/01/07 09:05:37;;;;;;;31.50;16.67;;;;;;;5.94;88.77;95446.19;5088090;28;20299;-79
2023/01/07 09:08:05;;;;;;;35.53;17.57;;;;;;;5.98;89.19;95442.25;5090452;28;20203;-79
2023/01/07 09:10:31;;;;;;;36.27;19.23;;;;;;;6.03;89.52;95434.84;5084345;28;20192;-82
2023/01/07 09:12:58;;;;;;;40.67;18.70;;;;;;;6.04;89.08;95437.22;5089475;28;20311;-83
2023/01/07 09:15:26;;;;;;;37.40;18.53;;;;;;;5.98;88.77;95422.44;5087623;28;20207;-79
2023/01/07 09:17:53;;;;;;;33.23;18.97;;;;;;;6.01;88.25;95431.59;5085335;28;20200;-80
2023/01/07 09:20:20;;;;;;;34.60;18.93;;;;;;;6.05;87.80;95427.72;5085345;28;20204;-81
2023/01/07 09:22:47;;;;;;;32.30;18.90;;;;;;;6.12;87.46;95426.06;5087730;28;20196;-82
2023/01/07 09:25:14;;;;;;;37.50;18.80;;;;;;;6.19;86.85;95422.63;5082354;28;20584;-89
2023/01/07 09:27:42;;;;;;;35.93;18.63;;;;;;;6.23;86.98;95415.34;5083989;28;20943;-84
2023/01/07 09:30:09;;;;;;;32.40;18.20;;;;;;;6.23;87.82;95408.38;5089888;28;20253;-81
2023/01/07 09:32:38;;;;;;;37.97;19.83;;;;;;;6.31;87.61;95406.75;5089071;28;20219;-84
2023/01/07 09:35:05;;;;;;;41.27;19.57;;;;;;;6.31;87.41;95404.97;5088003;28;20237;-87
2023/01/07 09:37:32;;;;;;;36.57;19.33;;;;;;;6.42;87.31;95396.00;5085441;28;20200;-78
2023/01/07 09:40:00;;;;;;;37.03;19.87;;;;;;;6.49;86.69;95389.97;5087742;28;20193;-83
2023/01/07 09:42:33;;;;;;;40.73;20.17;;;;;;;6.61;86.88;95387.78;5088632;28;20235;-83
2023/01/07 09:45:19;;;;;;;35.43;19.30;;;;;;;6.68;85.34;95386.91;5091377;28;20196;-83
2023/01/07 09:47:51;;;;;;;39.93;20.17;;;;;;;6.73;85.00;95376.03;5087373;28;20278;-84
2023/01/07 09:50:27;;;;;;;37.77;19.57;;;;;;;6.84;84.83;95367.84;5089239;28;20196;-83
2023/01/07 09:53:00;;;;;;;34.73;18.27;;;;;;;6.97;84.10;95365.47;5086209;28;20216;-84
2023/01/07 09:55:32;;;;;;;33.33;19.43;;;;;;;7.07;83.75;95365.97;5087496;28;20589;-84
2023/01/07 09:57:59;;;;;;;31.93;18.83;;;;;;;7.19;83.93;95364.56;5087301;28;20211;-83
2023/01/07 10:00:27;;;;;;;30.90;18.37;;;;;;;7.26;83.50;95357.69;5085991;28;20197;-85
2023/01/07 10:03:17;;;;;;;33.13;18.83;;;;;;;7.68;82.53;95356.97;5091184;28;20203;-85
2023/01/07 10:05:56;;;;;;;33.03;17.43;;;;;;;9.38;77.17;95349.75;5087057;28;20212;-84
2023/01/07 10:08:34;;;;;;;31.50;17.33;;;;;;;11.64;64.91;95348.59;5088775;28;20260;-83
2023/01/07 10:11:14;;;;;;;32.53;17.53;;;;;;;13.80;57.70;95351.25;5087162;28;20224;-85
2023/01/07 10:13:59;;;;;;;34.07;16.97;;;;;;;16.01;50.46;95365.34;5088860;28;20224;-84
2023/01/07 10:16:36;;;;;;;33.53;16.83;;;;;;;17.44;45.74;95350.59;5088648;28;20241;-84
2023/01/07 10:19:11;;;;;;;29.43;16.60;;;;;;;18.59;42.60;95362.72;5088349;28;20196;-82
2023/01/07 10:21:42;;;;;;;28.30;16.40;;;;;;;19.48;41.06;95363.66;5085674;28;20200;-80
2023/01/07 10:24:16;;;;;;;24.30;14.73;;;;;;;20.42;39.03;95357.44;5087319;28;20212;-79
2023/01/07 10:26:47;;;;;;;25.90;14.20;;;;;;;21.30;36.84;95356.13;5084108;28;20721;-79
2023/01/07 10:29:19;;;;;;;22.50;13.30;;;;;;;21.69;36.03;95357.13;5085970;28;20193;-78
2023/01/07 10:31:48;;;;;;;24.17;13.90;;;;;;;22.41;34.81;95355.75;5086431;28;20554;-79
2023/01/07 10:34:30;;;;;;;21.33;12.48;;;;;;;23.02;33.62;95354.28;5086440;28;20658;-79
2023/01/07 10:37:03;;;;;;;22.70;12.02;;;;;;;23.89;32.27;95351.56;5088256;28;20630;-83
2023/01/07 10:39:42;;;;;;;18.85;11.82;;;;;;;24.62;30.88;95351.94;5087479;28;20222;-82
2023/01/07 10:42:16;;;;;;;16.55;11.38;;;;;;;24.69;30.47;95337.19;5087160;28;20237;-82
2023/01/07 10:45:27;;;;;;;22.55;12.18;;;;;;;24.84;29.50;95338.88;5081240;28;20213;-82
2023/01/07 10:48:12;;;;;;;18.63;10.63;;;;;;;24.51;29.65;95339.88;5011697;28;20280;-79
2023/01/07 10:51:00;;;;;;;19.85;9.93;;;;;;;24.76;29.66;95339.50;5085648;28;20652;-81
2023/01/07 10:53:37;;;;;;;17.38;10.68;;;;;;;24.91;29.54;95333.16;5081628;28;20713;-75
2023/01/07 10:56:20;;;;;;;22.05;10.32;;;;;;;25.27;28.93;95320.84;5083192;28;20185;-77
2023/01/07 10:58:49;;;;;;;18.15;10.60;;;;;;;25.28;29.06;95323.19;5082514;28;20211;-80
2023/01/07 11:01:23;;;;;;;85.20;13.93;;;;;;;25.55;28.72;95311.03;5081126;28;20193;-82
2023/01/07 11:03:52;;;;;;;30.80;11.35;;;;;;;25.58;28.10;95319.22;5082348;28;20200;-81
2023/01/07 11:06:45;;;;;;;54.70;12.82;;;;;;;25.22;28.73;95319.03;5081309;28;20205;-73
2023/01/07 11:09:18;;;;;;;59.08;12.65;;;;;;;25.42;28.86;95309.13;5079808;28;20193;-80
2023/01/07 11:11:46;;;;;;;65.88;11.25;;;;;;;25.48;28.51;95308.00;5083422;28;20193;-81
2023/01/07 11:14:21;;;;;;;45.38;8.18;;;;;;;25.87;28.14;95300.28;5086899;28;20200;-82
2023/01/07 11:16:54;;;;;;;24.67;7.40;;;;;;;26.21;27.79;95310.50;5085312;28;20200;-81
2023/01/07 11:19:22;;;;;;;23.15;7.00;;;;;;;26.01;27.82;95306.38;5085858;28;20659;-81
2023/01/07 11:21:51;;;;;;;15.20;7.10;;;;;;;25.87;27.68;95300.28;5084679;28;20189;-81
2023/01/07 11:24:32;;;;;;;11.48;5.70;;;;;;;26.20;27.82;95288.41;5085998;28;20205;-80
2023/01/07 11:27:13;;;;;;;10.55;5.65;;;;;;;26.65;27.27;95301.78;5084622;28;20648;-80
2023/01/07 11:29:43;;;;;;;9.82;5.22;;;;;;;26.64;26.70;95279.66;5086414;28;20204;-80
2023/01/07 11:32:20;;;;;;;11.20;5.32;;;;;;;26.02;26.78;95278.66;5084455;28;20220;-82
2023/01/07 11:34:55;;;;;;;10.80;5.63;;;;;;;25.49;27.53;95272.28;5085506;28;20220;-80
2023/01/07 11:37:34;;;;;;;11.05;6.05;;;;;;;23.76;29.56;95267.28;5084038;28;20192;-80
2023/01/07 11:40:04;;;;;;;7.55;5.55;;;;;;;22.20;32.59;95257.06;5083382;28;20200;-80